Sanem, Luxembourg
Current Conditions -  °F | °C
As of 9:50 PM on Tuesday 21 Oct 2014 (Local Time) from ELLX Reporting Station
Scattered Clouds Scattered Clouds  
Wind Chill: 35°   Ceiling: Unl
Heat Index: 43°   Visibility: 6mi
Dew Point: 39°   Wind: 16mph
Humidity: 87%   Direction: 280°W
Pressure: 29.85"   Gusts: 28mph
Location:  49.55°N, 5.93°E
Report Text: ELLX 211950Z 28014G24KT 240V310 9999 FEW006 SCT070 06/04 Q1011 NOSIG
Loading
Personal Weather Stations






























Interactive Weather Map
Tropical Storm Tracking
New forecast layout! Learn more

10-Day Weather Forecast

Advertisements
Track Severe Weather on mobile